createdAt,value
2022-10-18T00:00:22.554Z,69.94
2022-10-18T00:02:49.767Z,69.48
2022-10-18T00:05:17.198Z,69.16
2022-10-18T00:07:44.417Z,68.91
2022-10-18T00:10:11.632Z,68.74
2022-10-18T00:12:38.915Z,68.46
2022-10-18T00:15:09.033Z,68.16
2022-10-18T00:17:37.069Z,67.93
2022-10-18T00:20:05.588Z,67.62
2022-10-18T00:22:34.530Z,67.33
2022-10-18T00:25:01.733Z,67.05
2022-10-18T00:27:29.692Z,66.76
2022-10-18T00:29:56.943Z,66.52
2022-10-18T00:32:38.482Z,66.30
2022-10-18T00:35:07.833Z,66.15
2022-10-18T00:41:39.522Z,65.88
2022-10-18T00:44:45.083Z,65.68
2022-10-18T00:47:15.764Z,65.43
2022-10-18T00:49:47.053Z,65.11
2022-10-18T00:52:18.304Z,64.51
2022-10-18T00:54:47.086Z,64.05
2022-10-18T00:57:14.867Z,63.69
2022-10-18T00:59:43.873Z,63.39
2022-10-18T01:02:11.446Z,63.27
2022-10-18T01:04:38.697Z,63.14
2022-10-18T01:07:15.371Z,62.96
2022-10-18T01:09:47.516Z,62.72
2022-10-18T01:12:22.089Z,62.62
2022-10-18T01:14:56.033Z,62.66
2022-10-18T01:17:29.601Z,62.63
2022-10-18T01:20:16.680Z,62.65
2022-10-18T01:22:50.743Z,62.82
2022-10-18T01:25:29.741Z,62.90
2022-10-18T01:28:04.791Z,62.83
2022-10-18T01:30:53.984Z,62.78
2022-10-18T01:33:30.460Z,62.73
2022-10-18T01:36:03.430Z,62.66
2022-10-18T01:38:33.039Z,62.60
2022-10-18T01:41:02.189Z,62.64
2022-10-18T01:43:31.525Z,62.55
2022-10-18T01:46:00.554Z,62.67
2022-10-18T01:48:29.541Z,62.46
2022-10-18T01:50:56.768Z,62.47
2022-10-18T01:53:30.267Z,62.47
2022-10-18T01:56:26.263Z,62.40
2022-10-18T01:59:03.088Z,62.26
2022-10-18T02:01:41.068Z,62.14
2022-10-18T02:04:19.174Z,62.11
2022-10-18T02:06:53.137Z,62.05
2022-10-18T02:09:30.218Z,62.18
2022-10-18T02:11:58.236Z,62.16
2022-10-18T02:14:26.706Z,62.15
2022-10-18T02:17:00.022Z,62.15
2022-10-18T02:19:31.555Z,62.12
2022-10-18T02:21:59.978Z,62.08
2022-10-18T02:24:34.457Z,62.08
2022-10-18T02:27:02.068Z,62.04
2022-10-18T02:29:30.607Z,62.01
2022-10-18T02:32:06.978Z,61.98
2022-10-18T02:34:39.627Z,62.00
2022-10-18T02:37:09.093Z,61.31
2022-10-18T02:39:42.340Z,61.29
2022-10-18T02:42:10.991Z,61.29
2022-10-18T02:44:38.800Z,61.36
2022-10-18T02:47:09.930Z,61.38
2022-10-18T02:49:37.264Z,61.36
2022-10-18T02:52:04.748Z,61.38
2022-10-18T02:54:32.074Z,61.37
2022-10-18T02:56:59.291Z,61.36
2022-10-18T02:59:26.529Z,61.37
2022-10-18T03:01:53.808Z,61.33
2022-10-18T03:04:22.568Z,61.25
2022-10-18T03:06:49.884Z,61.16
2022-10-18T03:09:17.132Z,61.06
2022-10-18T03:11:44.405Z,61.00
2022-10-18T03:14:11.665Z,60.87
2022-10-18T03:16:38.923Z,60.82
2022-10-18T03:19:06.204Z,60.77
2022-10-18T03:21:34.928Z,60.80
2022-10-18T03:24:02.248Z,60.80
2022-10-18T03:26:29.659Z,60.83
2022-10-18T03:28:57.026Z,60.85
2022-10-18T03:31:24.551Z,60.83
2022-10-18T03:33:52.058Z,60.78
2022-10-18T03:36:19.327Z,60.82
2022-10-18T03:38:47.878Z,60.86
2022-10-18T03:41:15.197Z,60.95
2022-10-18T03:43:42.402Z,60.89
2022-10-18T03:46:09.720Z,60.95
2022-10-18T03:48:36.998Z,60.92
2022-10-18T03:51:04.396Z,60.88
2022-10-18T03:53:31.711Z,60.94
2022-10-18T03:56:00.309Z,60.92
2022-10-18T03:58:27.745Z,60.86
2022-10-18T04:00:55.651Z,60.82
2022-10-18T04:03:23.244Z,60.81
2022-10-18T04:05:50.881Z,60.76
2022-10-18T04:08:18.867Z,60.69
2022-10-18T04:10:46.375Z,60.67
2022-10-18T04:13:15.248Z,60.67
2022-10-18T04:15:43.289Z,60.74
2022-10-18T04:18:10.540Z,60.73
2022-10-18T04:20:37.753Z,60.72
2022-10-18T04:23:04.948Z,60.66
2022-10-18T04:25:32.219Z,60.62
2022-10-18T04:27:59.568Z,60.59
2022-10-18T04:30:28.180Z,60.60
2022-10-18T04:32:55.402Z,60.55
2022-10-18T04:35:22.717Z,60.54
2022-10-18T04:37:50.000Z,60.55
2022-10-18T04:40:17.558Z,60.49
2022-10-18T04:42:44.869Z,60.48
2022-10-18T04:45:12.117Z,60.45
2022-10-18T04:47:40.727Z,60.47
2022-10-18T04:50:08.509Z,60.46
2022-10-18T04:52:35.803Z,60.41
2022-10-18T04:55:03.353Z,60.37
2022-10-18T04:57:30.869Z,60.31
2022-10-18T04:59:58.431Z,60.30
2022-10-18T05:02:25.867Z,60.29
2022-10-18T05:04:54.490Z,60.21
2022-10-18T05:07:21.772Z,60.22
2022-10-18T05:09:49.060Z,60.22
2022-10-18T05:12:16.345Z,60.16
2022-10-18T05:14:43.628Z,60.15
2022-10-18T05:17:10.938Z,60.19
2022-10-18T05:19:38.216Z,60.13
2022-10-18T05:22:06.859Z,60.09
2022-10-18T05:24:34.129Z,60.06
2022-10-18T05:27:01.359Z,60.05
2022-10-18T05:29:28.614Z,60.12
2022-10-18T05:31:56.006Z,60.10
2022-10-18T05:34:23.358Z,60.06
2022-10-18T05:36:50.581Z,60.07
2022-10-18T05:39:19.177Z,60.12
2022-10-18T05:41:46.447Z,60.09
2022-10-18T05:44:13.664Z,60.11
2022-10-18T05:46:40.955Z,60.08
2022-10-18T05:49:09.548Z,60.08
2022-10-18T05:51:36.807Z,60.12
2022-10-18T05:54:04.516Z,60.10
2022-10-18T05:56:33.232Z,60.08
2022-10-18T05:59:00.529Z,60.10
2022-10-18T06:01:27.789Z,60.13
2022-10-18T06:03:55.076Z,60.12
2022-10-18T06:06:22.284Z,60.13
2022-10-18T06:08:49.976Z,60.14
2022-10-18T06:11:19.010Z,60.08
2022-10-18T06:13:49.623Z,60.13
2022-10-18T06:16:19.051Z,60.15
2022-10-18T06:18:47.864Z,60.13
2022-10-18T06:21:15.906Z,60.13
2022-10-18T06:23:43.229Z,60.10
2022-10-18T06:26:11.437Z,60.11
2022-10-18T06:28:38.967Z,60.11
2022-10-18T06:31:07.753Z,60.09
2022-10-18T06:33:35.894Z,60.09
2022-10-18T06:36:05.629Z,60.11
2022-10-18T06:38:33.060Z,60.11
2022-10-18T06:41:00.654Z,60.03
2022-10-18T06:43:28.081Z,60.06
2022-10-18T06:45:55.635Z,60.07
2022-10-18T06:48:24.638Z,60.10
2022-10-18T06:50:53.683Z,60.09
2022-10-18T06:53:20.980Z,60.02
2022-10-18T06:55:48.215Z,60.07
2022-10-18T06:58:15.769Z,60.03
2022-10-18T07:00:43.051Z,59.98
2022-10-18T07:03:10.361Z,60.00
2022-10-18T07:05:39.197Z,59.96
2022-10-18T07:08:06.581Z,59.94
2022-10-18T07:10:33.912Z,59.90
2022-10-18T07:13:20.033Z,59.85
2022-10-18T07:15:48.606Z,59.83
2022-10-18T07:18:15.825Z,59.82
2022-10-18T07:20:44.562Z,59.83
2022-10-18T07:23:11.840Z,59.85
2022-10-18T07:25:39.061Z,59.75
2022-10-18T07:28:06.385Z,59.69
2022-10-18T07:30:34.494Z,59.69
2022-10-18T07:33:01.699Z,59.67
2022-10-18T07:35:28.923Z,59.64
2022-10-18T07:37:57.795Z,59.69
2022-10-18T07:40:25.074Z,71.48
2022-10-18T07:42:52.557Z,71.42
2022-10-18T07:45:19.931Z,71.43
2022-10-18T07:47:47.167Z,71.37
2022-10-18T07:50:14.627Z,71.36
2022-10-18T07:52:41.831Z,71.41
2022-10-18T07:55:10.618Z,71.20
2022-10-18T07:57:37.846Z,71.36
2022-10-18T08:00:06.263Z,71.38
2022-10-18T08:02:38.757Z,71.34
2022-10-18T08:05:06.236Z,71.51
2022-10-18T08:07:33.559Z,71.33
2022-10-18T08:10:01.091Z,71.64
2022-10-18T08:12:29.705Z,71.46
2022-10-18T08:14:57.047Z,71.45
2022-10-18T08:17:24.342Z,71.36
2022-10-18T08:20:04.763Z,71.47
2022-10-18T08:22:39.064Z,71.46
2022-10-18T08:25:07.571Z,71.39
2022-10-18T08:27:36.185Z,71.38
2022-10-18T08:30:03.806Z,71.19
2022-10-18T08:32:31.382Z,71.21
2022-10-18T08:34:58.868Z,71.26
2022-10-18T08:37:26.184Z,71.25
2022-10-18T08:39:53.394Z,71.06
2022-10-18T08:42:42.989Z,70.92
2022-10-18T08:45:29.743Z,70.59
2022-10-18T08:47:58.429Z,70.56
2022-10-18T08:50:31.170Z,71.12
2022-10-18T08:53:05.145Z,71.46
2022-10-18T08:55:39.431Z,72.00
2022-10-18T08:58:17.102Z,72.41
2022-10-18T09:00:50.015Z,73.00
2022-10-18T09:03:29.938Z,73.39
2022-10-18T09:06:08.080Z,74.18
2022-10-18T09:08:46.015Z,75.31
2022-10-18T09:11:31.051Z,76.21
2022-10-18T09:14:20.463Z,77.82
2022-10-18T09:16:55.556Z,79.10
2022-10-18T09:19:43.818Z,80.73
2022-10-18T09:22:14.175Z,82.51
2022-10-18T09:24:46.693Z,84.77
2022-10-18T09:27:16.969Z,87.06
2022-10-18T09:30:02.408Z,91.89
2022-10-18T09:32:47.347Z,99.87
2022-10-18T09:35:18.381Z,100.00
2022-10-18T09:37:47.086Z,100.00
2022-10-18T09:40:19.313Z,100.00
2022-10-18T09:42:55.214Z,100.00
2022-10-18T09:45:28.821Z,100.00
2022-10-18T09:48:03.935Z,100.00
2022-10-18T09:50:38.281Z,100.00
2022-10-18T09:53:16.917Z,100.00
2022-10-18T09:55:58.900Z,100.00
2022-10-18T09:58:33.540Z,100.00
2022-10-18T10:01:02.292Z,100.00
2022-10-18T10:03:30.145Z,100.00
2022-10-18T10:06:22.746Z,100.00
2022-10-18T10:08:57.091Z,100.00
2022-10-18T10:11:34.368Z,100.00
2022-10-18T10:14:19.000Z,100.00
2022-10-18T10:16:53.786Z,100.00
2022-10-18T10:19:24.803Z,100.00
2022-10-18T10:21:56.893Z,100.00
2022-10-18T10:24:31.148Z,100.00
2022-10-18T10:27:00.707Z,100.00
2022-10-18T10:30:01.409Z,100.00
2022-10-18T10:32:44.189Z,100.00
2022-10-18T10:38:24.441Z,100.00
2022-10-18T10:40:52.222Z,100.00
2022-10-18T10:43:40.442Z,100.00
2022-10-18T10:46:11.675Z,100.00
2022-10-18T10:48:49.346Z,100.00
2022-10-18T10:51:28.300Z,100.00
2022-10-18T10:54:00.236Z,100.00
2022-10-18T10:56:29.806Z,100.00
2022-10-18T10:59:01.753Z,100.00
2022-10-18T11:01:32.055Z,100.00
2022-10-18T11:04:02.642Z,100.00
2022-10-18T11:06:43.718Z,100.00
2022-10-18T11:09:27.521Z,100.00
2022-10-18T11:12:14.283Z,100.00
2022-10-18T11:14:46.001Z,100.00
2022-10-18T11:17:21.955Z,100.00
2022-10-18T11:20:03.814Z,100.00
2022-10-18T11:22:36.074Z,100.00
2022-10-18T11:25:04.375Z,100.00
2022-10-18T11:27:36.106Z,100.00
2022-10-18T11:30:19.306Z,100.00
2022-10-18T11:32:57.413Z,100.00
2022-10-18T11:35:38.698Z,100.00
2022-10-18T11:38:22.135Z,100.00
2022-10-18T11:41:03.307Z,100.00
2022-10-18T11:44:01.191Z,100.00
2022-10-18T11:46:41.345Z,100.00
2022-10-18T11:49:39.127Z,100.00
2022-10-18T11:52:13.694Z,100.00
2022-10-18T11:54:57.579Z,100.00
2022-10-18T12:00:18.861Z,100.00
2022-10-18T12:02:59.738Z,100.00
2022-10-18T12:05:28.890Z,100.00
2022-10-18T12:08:01.931Z,100.00
2022-10-18T12:10:44.406Z,100.00
2022-10-18T12:13:25.636Z,100.00
2022-10-18T12:15:54.028Z,100.00
2022-10-18T12:18:25.360Z,100.00
2022-10-18T12:20:55.253Z,100.00
2022-10-18T12:23:35.327Z,100.00
2022-10-18T12:26:04.281Z,100.00
2022-10-18T12:28:42.909Z,100.00
2022-10-18T12:31:20.653Z,100.00
2022-10-18T12:33:51.025Z,100.00
2022-10-18T12:36:43.156Z,100.00
2022-10-18T12:39:27.292Z,100.00
2022-10-18T12:42:05.189Z,100.00
2022-10-18T12:44:34.119Z,100.00
2022-10-18T12:47:03.918Z,100.00
2022-10-18T12:49:34.797Z,100.00
2022-10-18T12:52:04.813Z,100.00
2022-10-18T12:54:35.462Z,100.00
2022-10-18T12:57:05.579Z,100.00
2022-10-18T12:59:50.708Z,100.00
2022-10-18T13:02:31.974Z,100.00
2022-10-18T13:07:37.317Z,100.00
2022-10-18T13:10:40.961Z,100.00
2022-10-18T13:13:38.792Z,100.00
2022-10-18T13:16:20.870Z,100.00
2022-10-18T13:18:53.969Z,100.00
2022-10-18T13:21:33.502Z,100.00
2022-10-18T13:24:25.820Z,100.00
2022-10-18T13:27:36.336Z,100.00
2022-10-18T13:30:27.485Z,100.00
2022-10-18T13:33:08.227Z,100.00
2022-10-18T13:35:48.521Z,100.00
2022-10-18T13:38:39.021Z,100.00
2022-10-18T13:41:09.017Z,100.00
2022-10-18T13:43:59.784Z,100.00
2022-10-18T13:47:00.325Z,100.00
2022-10-18T13:49:38.302Z,100.00
2022-10-18T13:52:18.260Z,100.00
2022-10-18T13:54:56.392Z,100.00
2022-10-18T13:57:44.192Z,100.00
2022-10-18T14:00:29.576Z,100.00
2022-10-18T14:03:55.059Z,100.00
2022-10-18T14:06:21.359Z,100.00
2022-10-18T14:08:55.438Z,100.00
2022-10-18T14:11:30.221Z,100.00
2022-10-18T14:14:07.836Z,100.00
2022-10-18T14:16:43.409Z,100.00
2022-10-18T14:19:21.936Z,100.00
2022-10-18T14:21:55.087Z,100.00
2022-10-18T14:24:25.179Z,100.00
2022-10-18T14:27:12.966Z,100.00
2022-10-18T14:29:40.524Z,100.00
2022-10-18T14:32:10.836Z,100.00
2022-10-18T14:34:38.614Z,100.00
2022-10-18T14:37:14.480Z,100.00
2022-10-18T14:39:41.873Z,100.00
2022-10-18T14:42:20.839Z,100.00
2022-10-18T14:44:51.772Z,100.00
2022-10-18T14:47:22.959Z,100.00
2022-10-18T14:49:51.513Z,100.00
2022-10-18T14:52:26.202Z,100.00
2022-10-18T14:54:55.417Z,100.00
2022-10-18T14:57:25.103Z,100.00
2022-10-18T14:59:55.289Z,100.00
2022-10-18T15:02:25.669Z,100.00
2022-10-18T15:04:58.878Z,100.00
2022-10-18T15:07:28.121Z,100.00
2022-10-18T15:09:57.628Z,100.00
2022-10-18T15:12:26.509Z,100.00
2022-10-18T15:14:54.384Z,100.00
2022-10-18T15:17:24.597Z,100.00
2022-10-18T15:19:59.399Z,100.00
2022-10-18T15:22:33.052Z,100.00
2022-10-18T15:25:15.667Z,100.00
2022-10-18T15:27:45.673Z,100.00
2022-10-18T15:30:18.581Z,100.00
2022-10-18T15:32:51.723Z,100.00
2022-10-18T15:35:26.088Z,100.00
2022-10-18T15:37:58.592Z,100.00
2022-10-18T15:40:35.642Z,100.00
2022-10-18T15:43:05.224Z,100.00
2022-10-18T15:45:36.203Z,100.00
2022-10-18T15:48:19.729Z,100.00
2022-10-18T15:50:48.569Z,100.00
2022-10-18T15:53:44.621Z,100.00
2022-10-18T15:56:27.217Z,100.00
2022-10-18T15:58:56.176Z,100.00
2022-10-18T16:01:29.038Z,100.00
2022-10-18T16:03:56.362Z,100.00
2022-10-18T16:06:23.626Z,100.00
2022-10-18T16:08:53.613Z,100.00
2022-10-18T16:11:22.687Z,100.00
2022-10-18T16:13:51.055Z,100.00
2022-10-18T16:16:21.962Z,100.00
2022-10-18T16:18:50.171Z,100.00
2022-10-18T16:21:19.487Z,100.00
2022-10-18T16:23:47.294Z,100.00
2022-10-18T16:26:17.523Z,100.00
2022-10-18T16:28:45.504Z,100.00
2022-10-18T16:33:51.294Z,100.00
2022-10-18T16:36:20.572Z,100.00
2022-10-18T16:38:48.272Z,100.00
2022-10-18T16:41:16.971Z,100.00
2022-10-18T16:43:45.928Z,100.00
2022-10-18T16:46:16.326Z,100.00
2022-10-18T16:48:44.359Z,100.00
2022-10-18T16:51:12.341Z,100.00
2022-10-18T16:53:39.582Z,100.00
2022-10-18T16:56:13.348Z,100.00
2022-10-18T16:58:42.289Z,100.00
2022-10-18T17:01:11.420Z,100.00
2022-10-18T17:03:38.832Z,100.00
2022-10-18T17:06:06.280Z,100.00
2022-10-18T17:08:33.608Z,100.00
2022-10-18T17:11:00.851Z,100.00
2022-10-18T17:13:28.249Z,100.00
2022-10-18T17:15:56.866Z,100.00
2022-10-18T17:18:25.397Z,100.00
2022-10-18T17:20:52.576Z,100.00
2022-10-18T17:23:20.230Z,100.00
2022-10-18T17:25:59.139Z,100.00
2022-10-18T17:28:32.525Z,100.00
2022-10-18T17:31:01.194Z,100.00
2022-10-18T17:33:28.469Z,100.00
2022-10-18T17:35:55.830Z,100.00
2022-10-18T17:38:23.179Z,100.00
2022-10-18T17:40:50.509Z,100.00
2022-10-18T17:43:17.735Z,100.00
2022-10-18T17:45:47.096Z,100.00
2022-10-18T17:48:15.743Z,100.00
2022-10-18T17:50:43.053Z,100.00
2022-10-18T17:53:10.711Z,100.00
2022-10-18T17:55:37.943Z,100.00
2022-10-18T17:58:05.582Z,100.00
2022-10-18T18:00:32.827Z,100.00
2022-10-18T18:03:00.584Z,100.00
2022-10-18T18:05:32.460Z,100.00
2022-10-18T18:08:03.803Z,100.00
2022-10-18T18:10:32.538Z,100.00
2022-10-18T18:13:00.114Z,100.00
2022-10-18T18:15:27.588Z,100.00
2022-10-18T18:17:58.343Z,100.00
2022-10-18T18:20:26.207Z,100.00
2022-10-18T18:22:54.831Z,100.00
2022-10-18T18:25:22.286Z,100.00
2022-10-18T18:27:49.624Z,100.00
2022-10-18T18:30:17.287Z,100.00
2022-10-18T18:32:44.628Z,100.00
2022-10-18T18:35:11.829Z,100.00
2022-10-18T18:37:39.143Z,100.00
2022-10-18T18:40:08.827Z,100.00
2022-10-18T18:42:36.300Z,100.00
2022-10-18T18:45:04.165Z,100.00
2022-10-18T18:47:31.346Z,100.00
2022-10-18T18:49:58.604Z,100.00
2022-10-18T18:52:25.915Z,100.00
2022-10-18T18:54:53.227Z,100.00
2022-10-18T18:57:22.003Z,100.00
2022-10-18T18:59:49.263Z,100.00
2022-10-18T19:02:16.495Z,100.00
2022-10-18T19:04:43.770Z,100.00
2022-10-18T19:07:11.220Z,100.00
2022-10-18T19:09:38.697Z,100.00
2022-10-18T19:12:06.017Z,100.00
2022-10-18T19:14:34.721Z,100.00
2022-10-18T19:17:02.151Z,100.00
2022-10-18T19:19:30.929Z,100.00
2022-10-18T19:22:00.041Z,100.00
2022-10-18T19:24:29.166Z,100.00
2022-10-18T19:26:58.687Z,100.00
2022-10-18T19:29:27.991Z,100.00
2022-10-18T19:31:58.708Z,100.00
2022-10-18T19:34:28.090Z,100.00
2022-10-18T19:36:55.778Z,100.00
2022-10-18T19:39:24.627Z,100.00
2022-10-18T19:41:58.278Z,100.00
2022-10-18T19:44:28.503Z,100.00
2022-10-18T19:46:57.291Z,100.00
2022-10-18T19:49:24.925Z,100.00
2022-10-18T19:51:52.319Z,100.00
2022-10-18T19:54:19.536Z,100.00
2022-10-18T19:56:47.246Z,100.00
2022-10-18T19:59:16.327Z,100.00
2022-10-18T20:01:44.403Z,100.00
2022-10-18T20:04:13.433Z,100.00
2022-10-18T20:06:41.763Z,100.00
2022-10-18T20:09:13.330Z,100.00
2022-10-18T20:11:43.596Z,100.00
2022-10-18T20:14:10.893Z,100.00
2022-10-18T20:16:38.204Z,100.00
2022-10-18T20:19:07.352Z,100.00
2022-10-18T20:21:36.632Z,100.00
2022-10-18T20:24:04.911Z,100.00
2022-10-18T20:26:32.757Z,100.00
2022-10-18T20:29:00.367Z,100.00
2022-10-18T20:31:29.803Z,100.00
2022-10-18T20:33:59.281Z,100.00
2022-10-18T20:36:28.581Z,100.00
2022-10-18T20:38:58.102Z,100.00
2022-10-18T20:41:28.034Z,100.00
2022-10-18T20:43:56.805Z,100.00
2022-10-18T20:46:24.961Z,100.00
2022-10-18T20:48:53.808Z,100.00
2022-10-18T20:51:21.595Z,100.00
2022-10-18T20:53:49.654Z,100.00
2022-10-18T20:56:20.543Z,100.00
2022-10-18T20:58:49.491Z,100.00
2022-10-18T21:01:18.903Z,100.00
2022-10-18T21:03:48.046Z,100.00
2022-10-18T21:06:20.363Z,100.00
2022-10-18T21:08:47.892Z,100.00
2022-10-18T21:11:15.243Z,100.00
2022-10-18T21:13:44.112Z,100.00
2022-10-18T21:16:11.347Z,100.00
2022-10-18T21:18:38.555Z,100.00
2022-10-18T21:21:11.054Z,100.00
2022-10-18T21:23:38.966Z,100.00
2022-10-18T21:26:06.999Z,100.00
2022-10-18T21:28:34.570Z,100.00
2022-10-18T21:31:12.040Z,100.00
2022-10-18T21:33:39.931Z,100.00
2022-10-18T21:36:07.551Z,100.00
2022-10-18T21:38:35.134Z,100.00
2022-10-18T21:41:07.904Z,100.00
2022-10-18T21:43:35.165Z,100.00
2022-10-18T21:46:02.668Z,100.00
2022-10-18T21:48:31.788Z,100.00
2022-10-18T21:51:02.855Z,100.00
2022-10-18T21:53:30.511Z,100.00
2022-10-18T21:56:04.579Z,100.00
2022-10-18T21:58:31.881Z,100.00
2022-10-18T22:00:59.228Z,100.00
2022-10-18T22:03:26.621Z,100.00
2022-10-18T22:06:00.239Z,100.00
2022-10-18T22:08:27.879Z,100.00
2022-10-18T22:10:57.135Z,100.00
2022-10-18T22:13:24.454Z,100.00
2022-10-18T22:15:52.252Z,100.00
2022-10-18T22:18:19.564Z,100.00
2022-10-18T22:20:54.181Z,100.00
2022-10-18T22:23:23.005Z,100.00
2022-10-18T22:25:50.320Z,100.00
2022-10-18T22:28:17.587Z,100.00
2022-10-18T22:30:44.760Z,100.00
2022-10-18T22:33:12.027Z,100.00
2022-10-18T22:35:39.315Z,100.00
2022-10-18T22:38:06.593Z,100.00
2022-10-18T22:40:35.236Z,100.00
2022-10-18T22:43:02.452Z,100.00
2022-10-18T22:45:29.872Z,100.00
2022-10-18T22:47:57.769Z,100.00
2022-10-18T22:50:25.070Z,100.00
2022-10-18T22:52:54.013Z,100.00
2022-10-18T22:55:22.505Z,100.00
2022-10-18T22:57:51.128Z,100.00
2022-10-18T23:00:18.518Z,100.00
2022-10-18T23:02:48.708Z,100.00
2022-10-18T23:05:16.231Z,100.00
2022-10-18T23:07:47.910Z,100.00
2022-10-18T23:10:15.356Z,100.00
2022-10-18T23:12:42.634Z,100.00
2022-10-18T23:15:12.022Z,100.00
2022-10-18T23:17:39.392Z,100.00
2022-10-18T23:20:07.401Z,100.00
2022-10-18T23:22:34.927Z,100.00
2022-10-18T23:25:02.454Z,100.00
2022-10-18T23:27:29.751Z,100.00
2022-10-18T23:29:57.424Z,100.00
2022-10-18T23:32:26.269Z,100.00
2022-10-18T23:34:53.568Z,100.00
2022-10-18T23:37:20.866Z,100.00
2022-10-18T23:39:48.118Z,100.00
2022-10-18T23:42:15.834Z,100.00
2022-10-18T23:44:43.879Z,100.00
2022-10-18T23:47:11.180Z,100.00
2022-10-18T23:49:39.926Z,100.00
2022-10-18T23:52:07.277Z,100.00
2022-10-18T23:54:34.871Z,100.00
2022-10-18T23:57:02.172Z,100.00
2022-10-18T23:59:29.437Z,100.00
